createdAt,value
2018-07-26T00:00:15.542Z,20.80
2018-07-26T00:02:43.895Z,20.70
2018-07-26T00:05:12.295Z,20.60
2018-07-26T00:07:40.670Z,20.50
2018-07-26T00:10:09.752Z,20.40
2018-07-26T00:12:38.302Z,20.40
2018-07-26T00:15:07.852Z,20.20
2018-07-26T00:17:36.186Z,20.20
2018-07-26T00:20:04.921Z,20.20
2018-07-26T00:22:33.264Z,20.20
2018-07-26T00:25:01.956Z,20.20
2018-07-26T00:27:30.318Z,20.10
2018-07-26T00:29:58.708Z,20.10
2018-07-26T00:32:27.048Z,20.00
2018-07-26T00:34:55.468Z,20.00
2018-07-26T00:37:23.812Z,19.90
2018-07-26T00:39:52.176Z,19.80
2018-07-26T00:42:20.524Z,19.80
2018-07-26T00:47:17.059Z,19.80
2018-07-26T00:49:45.515Z,19.80
2018-07-26T00:52:13.871Z,19.70
2018-07-26T00:54:42.289Z,19.70
2018-07-26T00:57:10.715Z,19.70
2018-07-26T00:59:39.225Z,19.70
2018-07-26T01:02:07.569Z,19.60
2018-07-26T01:04:35.944Z,19.60
2018-07-26T01:07:04.360Z,19.60
2018-07-26T01:09:32.736Z,19.60
2018-07-26T01:12:01.112Z,19.60
2018-07-26T01:14:29.490Z,19.50
2018-07-26T01:16:57.823Z,19.50
2018-07-26T01:19:26.208Z,19.50
2018-07-26T01:21:54.568Z,19.40
2018-07-26T01:24:22.969Z,19.30
2018-07-26T01:26:51.310Z,19.20
2018-07-26T01:29:20.576Z,19.20
2018-07-26T01:31:52.438Z,19.10
2018-07-26T01:34:21.329Z,19.10
2018-07-26T01:36:49.800Z,19.10
2018-07-26T01:41:47.312Z,19.00
2018-07-26T01:44:17.179Z,19.00
2018-07-26T01:46:45.818Z,19.00
2018-07-26T01:49:14.281Z,18.90
2018-07-26T01:51:42.635Z,18.90
2018-07-26T01:54:11.024Z,18.90
2018-07-26T01:56:39.380Z,18.90
2018-07-26T01:59:07.813Z,18.90
2018-07-26T02:01:36.187Z,18.90
2018-07-26T02:04:04.589Z,18.90
2018-07-26T02:06:32.972Z,18.90
2018-07-26T02:09:01.360Z,18.90
2018-07-26T02:11:29.780Z,18.90
2018-07-26T02:13:58.127Z,18.80
2018-07-26T02:16:26.487Z,18.90
2018-07-26T02:18:54.836Z,18.80
2018-07-26T02:21:23.199Z,18.80
2018-07-26T02:23:51.597Z,18.80
2018-07-26T02:26:20.116Z,18.70
2018-07-26T02:28:48.475Z,18.60
2018-07-26T02:31:16.877Z,18.60
2018-07-26T02:33:45.237Z,18.50
2018-07-26T02:36:13.612Z,18.50
2018-07-26T02:38:41.965Z,18.40
2018-07-26T02:41:10.364Z,18.40
2018-07-26T02:43:38.764Z,18.30
2018-07-26T02:46:07.161Z,18.20
2018-07-26T02:48:35.531Z,18.20
2018-07-26T02:51:03.958Z,18.10
2018-07-26T02:53:32.296Z,18.10
2018-07-26T02:56:00.676Z,18.00
2018-07-26T02:58:29.035Z,18.00
2018-07-26T03:00:57.454Z,17.90
2018-07-26T03:03:25.888Z,17.90
2018-07-26T03:05:54.310Z,17.90
2018-07-26T03:08:22.694Z,17.90
2018-07-26T03:10:51.079Z,17.90
2018-07-26T03:13:19.465Z,17.80
2018-07-26T03:15:47.868Z,17.80
2018-07-26T03:18:16.242Z,17.70
2018-07-26T03:20:44.650Z,17.70
2018-07-26T03:23:13.009Z,17.70
2018-07-26T03:25:41.383Z,17.70
2018-07-26T03:28:09.731Z,17.60
2018-07-26T03:30:38.120Z,17.60
2018-07-26T03:33:06.769Z,17.50
2018-07-26T03:35:35.158Z,17.50
2018-07-26T03:38:03.524Z,17.50
2018-07-26T03:40:32.085Z,17.50
2018-07-26T03:43:00.483Z,17.40
2018-07-26T03:45:28.832Z,17.40
2018-07-26T03:47:57.228Z,17.40
2018-07-26T03:50:25.572Z,17.40
2018-07-26T03:52:53.956Z,17.40
2018-07-26T03:55:22.321Z,17.40
2018-07-26T03:57:50.820Z,17.40
2018-07-26T04:00:19.192Z,17.30
2018-07-26T04:02:47.578Z,17.30
2018-07-26T04:05:15.928Z,17.30
2018-07-26T04:07:44.328Z,17.30
2018-07-26T04:10:12.692Z,17.30
2018-07-26T04:12:41.091Z,17.30
2018-07-26T04:15:09.450Z,17.20
2018-07-26T04:17:37.848Z,17.20
2018-07-26T04:20:06.223Z,17.20
2018-07-26T04:22:34.663Z,17.10
2018-07-26T04:25:03.014Z,17.10
2018-07-26T04:29:59.469Z,17.20
2018-07-26T04:34:55.929Z,17.30
2018-07-26T04:37:24.295Z,17.40
2018-07-26T04:39:52.636Z,17.40
2018-07-26T04:42:21.022Z,17.50
2018-07-26T04:44:49.416Z,17.60
2018-07-26T04:47:17.824Z,17.70
2018-07-26T04:54:42.392Z,17.90
2018-07-26T04:57:10.747Z,18.00
2018-07-26T04:59:39.133Z,18.00
2018-07-26T05:02:07.560Z,18.10
2018-07-26T05:04:35.944Z,18.20
2018-07-26T05:07:04.350Z,18.30
2018-07-26T05:09:32.705Z,18.40
2018-07-26T05:12:01.107Z,18.50
2018-07-26T05:14:29.460Z,18.60
2018-07-26T05:16:57.840Z,18.70
2018-07-26T05:19:26.188Z,18.80
2018-07-26T05:21:54.588Z,19.00
2018-07-26T05:24:22.949Z,19.20
2018-07-26T05:26:51.320Z,19.30
2018-07-26T05:29:19.672Z,19.50
2018-07-26T05:31:48.104Z,19.70
2018-07-26T05:34:16.455Z,19.80
2018-07-26T05:36:44.835Z,20.00
2018-07-26T05:39:13.193Z,20.10
2018-07-26T05:41:41.988Z,20.30
2018-07-26T05:44:10.488Z,20.50
2018-07-26T05:46:38.837Z,20.60
2018-07-26T05:49:07.232Z,20.80
2018-07-26T05:51:35.640Z,21.00
2018-07-26T05:54:04.188Z,21.20
2018-07-26T05:56:32.557Z,21.40
2018-07-26T05:59:00.940Z,21.50
2018-07-26T06:01:29.367Z,21.70
2018-07-26T06:03:57.804Z,21.80
2018-07-26T06:06:26.167Z,22.00
2018-07-26T06:08:54.571Z,22.20
2018-07-26T06:11:22.939Z,22.40
2018-07-26T06:13:51.366Z,22.60
2018-07-26T06:16:19.714Z,22.70
2018-07-26T06:18:48.093Z,22.90
2018-07-26T06:21:16.556Z,23.10
2018-07-26T06:23:45.049Z,23.30
2018-07-26T06:26:13.405Z,23.40
2018-07-26T06:28:41.835Z,23.60
2018-07-26T06:31:10.229Z,23.80
2018-07-26T06:33:38.734Z,23.80
2018-07-26T06:36:07.012Z,23.80
2018-07-26T06:38:35.393Z,23.90
2018-07-26T06:41:03.781Z,24.00
2018-07-26T06:43:32.175Z,24.10
2018-07-26T06:46:00.572Z,24.30
2018-07-26T06:48:28.971Z,24.50
2018-07-26T06:50:57.324Z,24.50
2018-07-26T06:53:25.708Z,24.50
2018-07-26T06:55:54.140Z,24.40
2018-07-26T06:58:22.523Z,24.40
2018-07-26T07:00:50.955Z,24.50
2018-07-26T07:03:19.369Z,24.60
2018-07-26T07:05:47.728Z,24.70
2018-07-26T07:08:16.133Z,24.70
2018-07-26T07:10:44.517Z,24.80
2018-07-26T07:13:12.905Z,24.80
2018-07-26T07:15:41.304Z,24.80
2018-07-26T07:18:09.765Z,25.00
2018-07-26T07:20:38.129Z,25.20
2018-07-26T07:23:06.520Z,25.30
2018-07-26T07:25:34.895Z,25.40
2018-07-26T07:28:03.273Z,25.50
2018-07-26T07:30:31.623Z,25.60
2018-07-26T07:32:59.999Z,25.60
2018-07-26T07:35:28.422Z,25.60
2018-07-26T07:37:56.795Z,25.60
2018-07-26T07:40:25.155Z,25.70
2018-07-26T07:42:53.541Z,25.80
2018-07-26T07:45:22.092Z,25.90
2018-07-26T07:47:50.439Z,26.00
2018-07-26T07:50:18.888Z,25.90
2018-07-26T07:52:47.275Z,26.00
2018-07-26T07:55:15.677Z,26.10
2018-07-26T07:57:44.025Z,26.30
2018-07-26T08:00:12.408Z,26.40
2018-07-26T08:02:40.760Z,26.50
2018-07-26T08:05:09.224Z,26.60
2018-07-26T08:07:37.594Z,26.60
2018-07-26T08:10:07.736Z,26.70
2018-07-26T08:12:36.212Z,26.80
2018-07-26T08:15:04.869Z,26.90
2018-07-26T08:17:33.205Z,27.00
2018-07-26T08:20:01.730Z,27.10
2018-07-26T08:22:30.076Z,27.20
2018-07-26T08:24:58.452Z,27.20
2018-07-26T08:27:26.844Z,27.30
2018-07-26T08:29:55.204Z,27.40
2018-07-26T08:34:51.644Z,27.70
2018-07-26T08:37:20.022Z,27.80
2018-07-26T08:39:48.400Z,27.90
2018-07-26T08:44:44.952Z,28.20
2018-07-26T08:47:13.284Z,28.30
2018-07-26T08:49:41.668Z,28.40
2018-07-26T08:52:10.037Z,28.30
2018-07-26T08:54:38.449Z,28.30
2018-07-26T08:57:06.852Z,28.40
2018-07-26T08:59:35.558Z,28.40
2018-07-26T09:02:03.970Z,28.50
2018-07-26T09:04:32.368Z,28.60
2018-07-26T09:07:00.715Z,28.60
2018-07-26T09:09:29.120Z,28.70
2018-07-26T09:11:57.488Z,28.70
2018-07-26T09:14:25.877Z,28.70
2018-07-26T09:16:54.220Z,28.80
2018-07-26T09:19:22.580Z,29.00
2018-07-26T09:21:50.908Z,29.10
2018-07-26T09:24:19.395Z,29.00
2018-07-26T09:26:47.761Z,29.10
2018-07-26T09:29:16.136Z,29.10
2018-07-26T09:31:44.485Z,29.10
2018-07-26T09:36:40.996Z,29.30
2018-07-26T09:39:15.277Z,29.40
2018-07-26T09:41:43.684Z,29.50
2018-07-26T09:44:12.133Z,29.40
2018-07-26T09:46:40.648Z,29.50
2018-07-26T09:49:09.032Z,29.50
2018-07-26T09:54:05.644Z,29.70
2018-07-26T09:56:34.066Z,29.80
2018-07-26T10:01:32.397Z,29.80
2018-07-26T10:04:01.178Z,29.80
2018-07-26T10:06:29.736Z,29.90
2018-07-26T10:08:58.382Z,29.90
2018-07-26T10:11:27.650Z,29.90
2018-07-26T10:13:56.428Z,29.90
2018-07-26T10:16:25.418Z,29.90
2018-07-26T10:18:53.970Z,29.90
2018-07-26T10:23:50.608Z,29.80
2018-07-26T10:26:19.089Z,29.80
2018-07-26T10:28:47.460Z,29.90
2018-07-26T10:31:15.970Z,30.10
2018-07-26T10:33:44.631Z,30.20
2018-07-26T10:36:13.959Z,30.30
2018-07-26T10:38:42.446Z,30.30
2018-07-26T10:41:10.922Z,30.20
2018-07-26T10:46:07.568Z,30.30
2018-07-26T10:48:35.913Z,30.30
2018-07-26T10:51:04.300Z,30.40
2018-07-26T10:53:32.652Z,30.40
2018-07-26T10:56:01.022Z,30.50
2018-07-26T10:58:29.364Z,30.60
2018-07-26T11:00:57.765Z,30.60
2018-07-26T11:03:26.147Z,30.40
2018-07-26T11:05:54.696Z,30.20
2018-07-26T11:08:23.036Z,30.20
2018-07-26T11:10:51.421Z,30.10
2018-07-26T11:13:19.756Z,30.10
2018-07-26T11:15:48.128Z,30.20
2018-07-26T11:18:16.467Z,30.20
2018-07-26T11:20:44.877Z,30.30
2018-07-26T11:23:13.216Z,30.40
2018-07-26T11:25:41.665Z,30.40
2018-07-26T11:28:10.092Z,30.40
2018-07-26T11:30:38.493Z,30.20
2018-07-26T11:33:06.852Z,30.20
2018-07-26T11:35:35.208Z,30.10
2018-07-26T11:38:03.580Z,30.00
2018-07-26T11:45:28.217Z,30.10
2018-07-26T11:47:56.583Z,30.10
2018-07-26T11:52:53.083Z,30.20
2018-07-26T11:57:49.499Z,30.30
2018-07-26T12:00:17.877Z,30.50
2018-07-26T12:02:46.282Z,30.50
2018-07-26T12:05:14.672Z,30.60
2018-07-26T12:07:43.052Z,30.70
2018-07-26T12:10:11.396Z,30.70
2018-07-26T12:12:39.754Z,30.70
2018-07-26T12:15:08.085Z,30.70
2018-07-26T12:17:36.496Z,30.70
2018-07-26T12:20:05.742Z,30.70
2018-07-26T12:22:34.162Z,30.60
2018-07-26T12:25:02.514Z,30.50
2018-07-26T12:27:30.924Z,30.50
2018-07-26T12:29:59.263Z,30.40
2018-07-26T12:32:27.627Z,30.40
2018-07-26T12:37:25.084Z,30.30
2018-07-26T12:39:53.436Z,30.30
2018-07-26T12:42:21.825Z,30.30
2018-07-26T12:44:50.198Z,30.30
2018-07-26T12:47:18.558Z,30.40
2018-07-26T12:49:46.896Z,30.40
2018-07-26T12:52:17.843Z,30.40
2018-07-26T12:54:46.236Z,30.40
2018-07-26T12:59:42.764Z,30.60
2018-07-26T13:02:11.257Z,30.60
2018-07-26T13:07:08.276Z,30.80
2018-07-26T13:09:36.648Z,30.80
2018-07-26T13:12:05.196Z,30.80
2018-07-26T13:17:01.645Z,30.80
2018-07-26T13:24:28.503Z,30.70
2018-07-26T13:26:57.135Z,30.60
2018-07-26T13:29:25.560Z,30.60
2018-07-26T13:31:55.247Z,30.70
2018-07-26T13:34:23.808Z,30.90
2018-07-26T13:36:52.302Z,31.00
2018-07-26T13:39:20.800Z,30.90
2018-07-26T13:41:49.410Z,30.80
2018-07-26T13:46:46.172Z,30.40
2018-07-26T13:49:14.616Z,30.20
2018-07-26T13:51:43.005Z,30.20
2018-07-26T13:54:11.407Z,30.20
2018-07-26T13:56:39.807Z,30.30
2018-07-26T13:59:08.198Z,30.40
2018-07-26T14:01:36.565Z,30.40
2018-07-26T14:04:04.931Z,30.60
2018-07-26T14:06:33.280Z,30.70
2018-07-26T14:09:01.621Z,30.80
2018-07-26T14:11:29.985Z,30.90
2018-07-26T14:16:26.416Z,30.90
2018-07-26T14:18:54.783Z,30.90
2018-07-26T14:21:23.151Z,30.90
2018-07-26T14:23:56.839Z,30.80
2018-07-26T14:26:25.233Z,30.70
2018-07-26T14:28:53.572Z,30.60
2018-07-26T14:31:21.940Z,30.50
2018-07-26T14:38:46.452Z,30.20
2018-07-26T14:41:14.836Z,30.20
2018-07-26T14:43:43.252Z,30.30
2018-07-26T14:48:39.687Z,30.40
2018-07-26T14:53:36.115Z,30.50
2018-07-26T14:56:04.472Z,30.40
2018-07-26T14:58:32.949Z,30.40
2018-07-26T15:01:01.352Z,30.40
2018-07-26T15:03:29.759Z,30.50
2018-07-26T15:05:58.096Z,30.50
2018-07-26T15:08:26.491Z,30.50
2018-07-26T15:10:54.831Z,30.60
2018-07-26T15:13:23.208Z,30.50
2018-07-26T15:15:51.548Z,30.50
2018-07-26T15:20:48.053Z,30.50
2018-07-26T15:23:16.468Z,30.50
2018-07-26T15:25:44.848Z,30.50
2018-07-26T15:28:13.216Z,30.50
2018-07-26T15:30:41.567Z,30.60
2018-07-26T15:33:09.924Z,30.50
2018-07-26T15:35:38.280Z,30.40
2018-07-26T15:40:34.728Z,30.40
2018-07-26T15:43:03.307Z,30.40
2018-07-26T15:45:31.677Z,30.40
2018-07-26T15:48:00.049Z,30.50
2018-07-26T15:50:28.380Z,30.50
2018-07-26T15:52:56.768Z,30.50
2018-07-26T15:55:25.105Z,30.60
2018-07-26T15:57:53.496Z,30.50
2018-07-26T16:00:21.872Z,30.50
2018-07-26T16:02:50.246Z,30.50
2018-07-26T16:05:18.622Z,30.50
2018-07-26T16:07:46.982Z,30.40
2018-07-26T16:10:15.326Z,30.40
2018-07-26T16:12:43.800Z,30.40
2018-07-26T16:15:12.155Z,30.40
2018-07-26T16:17:40.674Z,30.40
2018-07-26T16:20:10.130Z,30.40
2018-07-26T16:22:38.534Z,30.40
2018-07-26T16:25:08.278Z,30.40
2018-07-26T16:27:36.772Z,30.40
2018-07-26T16:30:07.567Z,30.40
2018-07-26T16:35:04.300Z,30.30
2018-07-26T16:37:32.783Z,30.20
2018-07-26T16:40:01.202Z,30.20
2018-07-26T16:42:29.557Z,30.20
2018-07-26T16:44:57.975Z,30.20
2018-07-26T16:47:26.312Z,30.40
2018-07-26T16:49:54.698Z,30.60
2018-07-26T16:52:23.065Z,30.70
2018-07-26T16:54:51.427Z,30.90
2018-07-26T16:57:19.756Z,31.00
2018-07-26T16:59:48.133Z,31.10
2018-07-26T17:02:16.572Z,31.10
2018-07-26T17:04:45.024Z,31.10
2018-07-26T17:07:13.463Z,31.20
2018-07-26T17:09:42.055Z,31.20
2018-07-26T17:12:10.711Z,31.20
2018-07-26T17:14:39.117Z,31.20
2018-07-26T17:17:07.507Z,31.20
2018-07-26T17:19:36.308Z,31.20
2018-07-26T17:22:04.679Z,31.30
2018-07-26T17:24:33.083Z,31.30
2018-07-26T17:27:01.425Z,31.20
2018-07-26T17:34:25.929Z,31.30
2018-07-26T17:36:54.281Z,31.30
2018-07-26T17:39:22.668Z,31.30
2018-07-26T17:41:51.000Z,31.40
2018-07-26T17:44:19.376Z,31.40
2018-07-26T17:46:47.702Z,31.40
2018-07-26T17:49:16.064Z,31.40
2018-07-26T17:51:44.420Z,31.50
2018-07-26T17:54:12.826Z,31.50
2018-07-26T17:56:41.173Z,31.60
2018-07-26T18:01:37.601Z,31.50
2018-07-26T18:04:06.032Z,31.50
2018-07-26T18:06:34.384Z,31.50
2018-07-26T18:11:30.912Z,31.60
2018-07-26T18:13:59.321Z,31.50
2018-07-26T18:16:27.668Z,31.50
2018-07-26T18:18:56.048Z,31.50
2018-07-26T18:21:24.400Z,31.40
2018-07-26T18:23:52.767Z,31.30
2018-07-26T18:26:21.158Z,31.10
2018-07-26T18:28:49.532Z,30.80
2018-07-26T18:31:17.916Z,30.60
2018-07-26T18:33:46.577Z,30.30
2018-07-26T18:36:14.989Z,30.10
2018-07-26T18:38:43.364Z,29.90
2018-07-26T18:41:11.717Z,29.70
2018-07-26T18:43:40.082Z,29.50
2018-07-26T18:46:08.570Z,29.40
2018-07-26T18:48:36.940Z,29.20
2018-07-26T18:51:05.348Z,29.10
2018-07-26T18:53:33.676Z,29.00
2018-07-26T18:56:02.189Z,28.90
2018-07-26T19:00:58.844Z,28.60
2018-07-26T19:03:27.192Z,28.50
2018-07-26T19:05:55.578Z,28.40
2018-07-26T19:08:23.908Z,28.30
2018-07-26T19:10:52.289Z,28.30
2018-07-26T19:13:20.628Z,28.20
2018-07-26T19:18:17.128Z,27.90
2018-07-26T19:20:45.484Z,27.80
2018-07-26T19:23:13.857Z,27.70
2018-07-26T19:25:42.236Z,27.50
2018-07-26T19:28:10.593Z,27.40
2018-07-26T19:30:38.959Z,27.30
2018-07-26T19:33:07.369Z,27.20
2018-07-26T19:38:03.824Z,27.00
2018-07-26T19:43:00.260Z,26.70
2018-07-26T19:47:56.709Z,26.50
2018-07-26T19:50:25.080Z,26.30
2018-07-26T19:52:53.413Z,26.20
2018-07-26T19:55:21.788Z,26.00
2018-07-26T19:57:50.196Z,25.90
2018-07-26T20:00:18.588Z,25.80
2018-07-26T20:02:46.927Z,25.70
2018-07-26T20:05:15.320Z,25.60
2018-07-26T20:07:43.664Z,25.50
2018-07-26T20:12:41.519Z,25.30
2018-07-26T20:15:10.008Z,25.20
2018-07-26T20:17:38.380Z,25.10
2018-07-26T20:20:08.156Z,25.00
2018-07-26T20:22:36.750Z,24.90
2018-07-26T20:25:05.376Z,24.80
2018-07-26T20:27:33.810Z,24.80
2018-07-26T20:30:02.237Z,24.70
2018-07-26T20:32:30.598Z,24.50
2018-07-26T20:34:58.973Z,24.30
2018-07-26T20:37:27.370Z,24.20
2018-07-26T20:39:55.748Z,24.10
2018-07-26T20:42:24.097Z,24.00
2018-07-26T20:44:52.465Z,23.80
2018-07-26T20:47:20.811Z,23.70
2018-07-26T20:49:49.201Z,23.60
2018-07-26T20:52:17.568Z,23.50
2018-07-26T20:54:45.940Z,23.40
2018-07-26T20:57:14.311Z,23.30
2018-07-26T20:59:42.660Z,23.20
2018-07-26T21:02:11.126Z,23.10
2018-07-26T21:07:07.528Z,22.90
2018-07-26T21:09:35.868Z,22.80
2018-07-26T21:12:04.325Z,22.70
2018-07-26T21:14:32.672Z,22.60
2018-07-26T21:19:29.142Z,22.50
2018-07-26T21:21:57.540Z,22.50
2018-07-26T21:24:25.904Z,22.40
2018-07-26T21:26:54.320Z,22.30
2018-07-26T21:29:22.710Z,22.30
2018-07-26T21:31:51.134Z,22.20
2018-07-26T21:34:19.486Z,22.10
2018-07-26T21:36:47.881Z,22.00
2018-07-26T21:39:16.217Z,21.90
2018-07-26T21:41:44.581Z,21.80
2018-07-26T21:44:12.921Z,21.70
2018-07-26T21:46:41.304Z,21.60
2018-07-26T21:49:09.658Z,21.50
2018-07-26T21:51:38.051Z,21.40
2018-07-26T21:54:06.412Z,21.40
2018-07-26T21:56:34.800Z,21.30
2018-07-26T21:59:03.499Z,21.30
2018-07-26T22:01:31.996Z,21.20
2018-07-26T22:04:00.342Z,21.20
2018-07-26T22:06:28.748Z,21.20
2018-07-26T22:08:57.100Z,21.10
2018-07-26T22:11:25.720Z,21.00
2018-07-26T22:13:54.088Z,21.00
2018-07-26T22:16:22.489Z,21.00
2018-07-26T22:21:18.967Z,20.90
2018-07-26T22:23:47.348Z,20.80
2018-07-26T22:26:15.729Z,20.80
2018-07-26T22:28:44.115Z,20.70
2018-07-26T22:31:12.470Z,20.70
2018-07-26T22:33:40.820Z,20.60
2018-07-26T22:36:09.360Z,20.50
2018-07-26T22:38:37.729Z,20.40
2018-07-26T22:41:06.096Z,20.40
2018-07-26T22:43:34.440Z,20.30
2018-07-26T22:46:02.857Z,20.20
2018-07-26T22:48:31.214Z,20.20
2018-07-26T22:50:59.639Z,20.10
2018-07-26T22:53:28.002Z,20.10
2018-07-26T22:55:56.359Z,20.00
2018-07-26T23:00:52.814Z,19.90
2018-07-26T23:03:21.147Z,19.80
2018-07-26T23:05:49.588Z,19.80
2018-07-26T23:08:18.009Z,19.70
2018-07-26T23:10:46.363Z,19.60
2018-07-26T23:13:14.756Z,19.60
2018-07-26T23:15:43.083Z,19.60
2018-07-26T23:18:11.461Z,19.50
2018-07-26T23:20:39.797Z,19.40
2018-07-26T23:23:08.161Z,19.40
2018-07-26T23:25:36.497Z,19.40
2018-07-26T23:28:04.869Z,19.30
2018-07-26T23:30:33.220Z,19.30
2018-07-26T23:33:01.629Z,19.30
2018-07-26T23:35:30.036Z,19.30
2018-07-26T23:37:58.431Z,19.20
2018-07-26T23:40:26.763Z,19.20
2018-07-26T23:42:55.136Z,19.10
2018-07-26T23:45:23.480Z,19.10
2018-07-26T23:47:51.852Z,19.10
2018-07-26T23:50:20.194Z,19.00
2018-07-26T23:52:48.573Z,19.00
2018-07-26T23:55:16.969Z,18.90
2018-07-26T23:57:45.352Z,18.90
